sensor_id;sensor_type;location;lat;lon;timestamp;temperature;humidity
4677;DHT22;2352;48.180;11.478;2023-03-01T00:01:16;5.70;86.20
4677;DHT22;2352;48.180;11.478;2023-03-01T00:04:20;5.70;86.60
4677;DHT22;2352;48.180;11.478;2023-03-01T00:07:23;5.70;86.00
4677;DHT22;2352;48.180;11.478;2023-03-01T00:10:26;5.60;86.70
4677;DHT22;2352;48.180;11.478;2023-03-01T00:13:29;5.50;86.40
4677;DHT22;2352;48.180;11.478;2023-03-01T00:16:34;5.50;86.80
4677;DHT22;2352;48.180;11.478;2023-03-01T00:19:38;5.30;86.90
4677;DHT22;2352;48.180;11.478;2023-03-01T00:22:41;5.40;87.00
4677;DHT22;2352;48.180;11.478;2023-03-01T00:25:44;5.40;86.40
4677;DHT22;2352;48.180;11.478;2023-03-01T00:28:48;5.40;86.90
4677;DHT22;2352;48.180;11.478;2023-03-01T00:31:51;5.30;87.10
4677;DHT22;2352;48.180;11.478;2023-03-01T00:34:55;5.30;87.10
4677;DHT22;2352;48.180;11.478;2023-03-01T00:37:58;5.30;87.70
4677;DHT22;2352;48.180;11.478;2023-03-01T00:41:03;5.30;87.40
4677;DHT22;2352;48.180;11.478;2023-03-01T00:44:08;5.40;87.40
4677;DHT22;2352;48.180;11.478;2023-03-01T00:47:11;5.40;87.60
4677;DHT22;2352;48.180;11.478;2023-03-01T00:50:17;5.40;87.50
4677;DHT22;2352;48.180;11.478;2023-03-01T00:53:20;5.40;87.10
4677;DHT22;2352;48.180;11.478;2023-03-01T00:56:24;5.50;87.30
4677;DHT22;2352;48.180;11.478;2023-03-01T00:59:27;5.50;87.00
4677;DHT22;2352;48.180;11.478;2023-03-01T01:02:32;5.40;86.40
4677;DHT22;2352;48.180;11.478;2023-03-01T01:05:36;5.30;86.40
4677;DHT22;2352;48.180;11.478;2023-03-01T01:08:39;5.30;87.00
4677;DHT22;2352;48.180;11.478;2023-03-01T01:11:43;5.30;87.10
4677;DHT22;2352;48.180;11.478;2023-03-01T01:14:46;5.20;87.60
4677;DHT22;2352;48.180;11.478;2023-03-01T01:17:49;5.20;87.50
4677;DHT22;2352;48.180;11.478;2023-03-01T01:20:53;5.30;86.90
4677;DHT22;2352;48.180;11.478;2023-03-01T01:23:56;5.40;87.30
4677;DHT22;2352;48.180;11.478;2023-03-01T01:26:59;5.30;87.00
4677;DHT22;2352;48.180;11.478;2023-03-01T01:30:03;5.30;86.70
4677;DHT22;2352;48.180;11.478;2023-03-01T01:33:06;5.30;87.00
4677;DHT22;2352;48.180;11.478;2023-03-01T01:36:11;5.30;86.90
4677;DHT22;2352;48.180;11.478;2023-03-01T01:39:14;5.30;87.30
4677;DHT22;2352;48.180;11.478;2023-03-01T01:42:18;5.40;87.10
4677;DHT22;2352;48.180;11.478;2023-03-01T01:45:29;5.40;86.90
4677;DHT22;2352;48.180;11.478;2023-03-01T01:48:37;5.40;86.70
4677;DHT22;2352;48.180;11.478;2023-03-01T01:51:45;5.30;86.90
4677;DHT22;2352;48.180;11.478;2023-03-01T01:54:53;5.30;86.90
4677;DHT22;2352;48.180;11.478;2023-03-01T01:58:02;5.20;86.90
4677;DHT22;2352;48.180;11.478;2023-03-01T02:01:06;5.20;87.60
4677;DHT22;2352;48.180;11.478;2023-03-01T02:04:09;5.30;87.40
4677;DHT22;2352;48.180;11.478;2023-03-01T02:07:17;5.20;87.00
4677;DHT22;2352;48.180;11.478;2023-03-01T02:10:20;5.20;87.00
4677;DHT22;2352;48.180;11.478;2023-03-01T02:13:23;5.20;87.80
4677;DHT22;2352;48.180;11.478;2023-03-01T02:16:26;5.20;87.30
4677;DHT22;2352;48.180;11.478;2023-03-01T02:19:39;5.20;86.90
4677;DHT22;2352;48.180;11.478;2023-03-01T02:22:45;5.30;87.20
4677;DHT22;2352;48.180;11.478;2023-03-01T02:25:53;5.30;87.00
4677;DHT22;2352;48.180;11.478;2023-03-01T02:29:00;5.30;87.60
4677;DHT22;2352;48.180;11.478;2023-03-01T02:32:04;5.30;87.20
4677;DHT22;2352;48.180;11.478;2023-03-01T02:35:09;5.20;86.80
4677;DHT22;2352;48.180;11.478;2023-03-01T02:38:13;5.10;87.30
4677;DHT22;2352;48.180;11.478;2023-03-01T02:41:17;4.90;87.80
4677;DHT22;2352;48.180;11.478;2023-03-01T02:44:23;4.80;88.40
4677;DHT22;2352;48.180;11.478;2023-03-01T02:47:26;4.80;88.60
4677;DHT22;2352;48.180;11.478;2023-03-01T02:50:46;4.90;88.50
4677;DHT22;2352;48.180;11.478;2023-03-01T02:53:59;4.80;88.40
4677;DHT22;2352;48.180;11.478;2023-03-01T02:57:07;4.90;88.70
4677;DHT22;2352;48.180;11.478;2023-03-01T03:00:14;5.00;88.40
4677;DHT22;2352;48.180;11.478;2023-03-01T03:03:21;5.00;88.20
4677;DHT22;2352;48.180;11.478;2023-03-01T03:06:24;4.90;87.60
4677;DHT22;2352;48.180;11.478;2023-03-01T03:09:27;4.90;88.30
4677;DHT22;2352;48.180;11.478;2023-03-01T03:12:31;4.80;87.60
4677;DHT22;2352;48.180;11.478;2023-03-01T03:15:35;4.90;87.90
4677;DHT22;2352;48.180;11.478;2023-03-01T03:18:40;4.90;87.40
4677;DHT22;2352;48.180;11.478;2023-03-01T03:21:43;5.00;86.70
4677;DHT22;2352;48.180;11.478;2023-03-01T03:24:46;4.90;86.20
4677;DHT22;2352;48.180;11.478;2023-03-01T03:27:49;4.90;86.10
4677;DHT22;2352;48.180;11.478;2023-03-01T03:30:59;4.90;86.10
4677;DHT22;2352;48.180;11.478;2023-03-01T03:34:05;4.80;87.00
4677;DHT22;2352;48.180;11.478;2023-03-01T03:37:08;4.90;87.20
4677;DHT22;2352;48.180;11.478;2023-03-01T03:40:33;4.90;86.50
4677;DHT22;2352;48.180;11.478;2023-03-01T03:43:38;4.80;86.90
4677;DHT22;2352;48.180;11.478;2023-03-01T03:46:42;4.90;86.70
4677;DHT22;2352;48.180;11.478;2023-03-01T03:49:45;4.90;87.00
4677;DHT22;2352;48.180;11.478;2023-03-01T03:52:48;5.00;86.70
4677;DHT22;2352;48.180;11.478;2023-03-01T03:55:51;4.90;86.20
4677;DHT22;2352;48.180;11.478;2023-03-01T03:58:54;4.80;85.90
4677;DHT22;2352;48.180;11.478;2023-03-01T04:01:59;4.90;86.30
4677;DHT22;2352;48.180;11.478;2023-03-01T04:05:02;4.90;86.30
4677;DHT22;2352;48.180;11.478;2023-03-01T04:08:05;4.70;86.10
4677;DHT22;2352;48.180;11.478;2023-03-01T04:11:09;4.70;86.60
4677;DHT22;2352;48.180;11.478;2023-03-01T04:14:30;4.80;86.70
4677;DHT22;2352;48.180;11.478;2023-03-01T04:17:35;4.80;86.80
4677;DHT22;2352;48.180;11.478;2023-03-01T04:20:38;4.80;86.70
4677;DHT22;2352;48.180;11.478;2023-03-01T04:23:41;4.80;86.50
4677;DHT22;2352;48.180;11.478;2023-03-01T04:26:44;4.80;86.50
4677;DHT22;2352;48.180;11.478;2023-03-01T04:29:47;4.80;86.40
4677;DHT22;2352;48.180;11.478;2023-03-01T04:32:51;4.80;86.40
4677;DHT22;2352;48.180;11.478;2023-03-01T04:35:54;4.60;86.80
4677;DHT22;2352;48.180;11.478;2023-03-01T04:38:59;4.60;87.10
4677;DHT22;2352;48.180;11.478;2023-03-01T04:42:14;4.60;87.00
4677;DHT22;2352;48.180;11.478;2023-03-01T04:45:16;4.60;87.20
4677;DHT22;2352;48.180;11.478;2023-03-01T04:48:21;4.60;86.90
4677;DHT22;2352;48.180;11.478;2023-03-01T04:51:24;4.70;86.90
4677;DHT22;2352;48.180;11.478;2023-03-01T04:54:26;4.60;86.60
4677;DHT22;2352;48.180;11.478;2023-03-01T04:57:29;4.70;86.80
4677;DHT22;2352;48.180;11.478;2023-03-01T05:00:32;4.70;86.60
4677;DHT22;2352;48.180;11.478;2023-03-01T05:03:36;4.60;86.50
4677;DHT22;2352;48.180;11.478;2023-03-01T05:06:39;4.50;86.50
4677;DHT22;2352;48.180;11.478;2023-03-01T05:09:42;4.60;86.20
4677;DHT22;2352;48.180;11.478;2023-03-01T05:12:45;4.60;86.20
4677;DHT22;2352;48.180;11.478;2023-03-01T05:15:54;4.50;86.20
4677;DHT22;2352;48.180;11.478;2023-03-01T05:18:59;4.40;86.70
4677;DHT22;2352;48.180;11.478;2023-03-01T05:22:02;4.50;86.90
4677;DHT22;2352;48.180;11.478;2023-03-01T05:25:06;4.50;86.50
4677;DHT22;2352;48.180;11.478;2023-03-01T05:28:11;4.50;86.40
4677;DHT22;2352;48.180;11.478;2023-03-01T05:31:14;4.50;86.20
4677;DHT22;2352;48.180;11.478;2023-03-01T05:34:18;4.50;86.60
4677;DHT22;2352;48.180;11.478;2023-03-01T05:37:24;4.60;86.50
4677;DHT22;2352;48.180;11.478;2023-03-01T05:40:27;4.50;86.90
4677;DHT22;2352;48.180;11.478;2023-03-01T05:43:31;4.40;86.70
4677;DHT22;2352;48.180;11.478;2023-03-01T05:46:35;4.50;86.50
4677;DHT22;2352;48.180;11.478;2023-03-01T05:49:39;4.40;86.20
4677;DHT22;2352;48.180;11.478;2023-03-01T05:52:42;4.40;86.40
4677;DHT22;2352;48.180;11.478;2023-03-01T05:55:45;4.40;86.40
4677;DHT22;2352;48.180;11.478;2023-03-01T05:58:49;4.40;86.00
4677;DHT22;2352;48.180;11.478;2023-03-01T06:01:52;4.40;86.40
4677;DHT22;2352;48.180;11.478;2023-03-01T06:04:56;4.30;86.30
4677;DHT22;2352;48.180;11.478;2023-03-01T06:08:00;4.30;86.20
4677;DHT22;2352;48.180;11.478;2023-03-01T06:11:03;4.30;86.70
4677;DHT22;2352;48.180;11.478;2023-03-01T06:14:08;4.30;86.20
4677;DHT22;2352;48.180;11.478;2023-03-01T06:17:12;4.30;86.80
4677;DHT22;2352;48.180;11.478;2023-03-01T06:20:18;4.20;86.50
4677;DHT22;2352;48.180;11.478;2023-03-01T06:23:21;4.10;86.80
4677;DHT22;2352;48.180;11.478;2023-03-01T06:26:24;4.00;87.30
4677;DHT22;2352;48.180;11.478;2023-03-01T06:29:27;4.10;88.10
4677;DHT22;2352;48.180;11.478;2023-03-01T06:32:30;3.70;88.00
4677;DHT22;2352;48.180;11.478;2023-03-01T06:35:35;3.80;88.60
4677;DHT22;2352;48.180;11.478;2023-03-01T06:38:38;3.90;88.60
4677;DHT22;2352;48.180;11.478;2023-03-01T06:41:42;3.90;88.60
4677;DHT22;2352;48.180;11.478;2023-03-01T06:44:45;3.90;88.70
4677;DHT22;2352;48.180;11.478;2023-03-01T06:47:48;3.90;88.70
4677;DHT22;2352;48.180;11.478;2023-03-01T06:50:52;4.00;88.40
4677;DHT22;2352;48.180;11.478;2023-03-01T06:53:55;4.00;87.80
4677;DHT22;2352;48.180;11.478;2023-03-01T06:57:01;3.90;88.20
4677;DHT22;2352;48.180;11.478;2023-03-01T07:00:05;4.00;88.70
4677;DHT22;2352;48.180;11.478;2023-03-01T07:03:08;4.10;88.20
4677;DHT22;2352;48.180;11.478;2023-03-01T07:06:13;4.00;87.30
4677;DHT22;2352;48.180;11.478;2023-03-01T07:09:16;4.10;87.80
4677;DHT22;2352;48.180;11.478;2023-03-01T07:12:21;4.20;87.90
4677;DHT22;2352;48.180;11.478;2023-03-01T07:15:24;4.30;87.70
4677;DHT22;2352;48.180;11.478;2023-03-01T07:18:28;4.20;87.00
4677;DHT22;2352;48.180;11.478;2023-03-01T07:21:32;3.90;87.70
4677;DHT22;2352;48.180;11.478;2023-03-01T07:24:35;4.00;88.20
4677;DHT22;2352;48.180;11.478;2023-03-01T07:27:38;4.10;88.10
4677;DHT22;2352;48.180;11.478;2023-03-01T07:30:40;4.10;87.90
4677;DHT22;2352;48.180;11.478;2023-03-01T07:33:43;4.30;87.80
4677;DHT22;2352;48.180;11.478;2023-03-01T07:36:48;4.10;88.10
4677;DHT22;2352;48.180;11.478;2023-03-01T07:39:51;4.10;87.90
4677;DHT22;2352;48.180;11.478;2023-03-01T07:42:55;4.10;88.10
4677;DHT22;2352;48.180;11.478;2023-03-01T07:45:59;4.20;88.10
4677;DHT22;2352;48.180;11.478;2023-03-01T07:49:03;4.20;88.10
4677;DHT22;2352;48.180;11.478;2023-03-01T07:52:09;4.10;88.30
4677;DHT22;2352;48.180;11.478;2023-03-01T07:55:13;4.20;88.00
4677;DHT22;2352;48.180;11.478;2023-03-01T07:58:16;4.20;88.20
4677;DHT22;2352;48.180;11.478;2023-03-01T08:01:21;4.20;87.80
4677;DHT22;2352;48.180;11.478;2023-03-01T08:04:24;4.30;88.40
4677;DHT22;2352;48.180;11.478;2023-03-01T08:07:29;4.40;91.70
4677;DHT22;2352;48.180;11.478;2023-03-01T08:10:32;4.50;88.90
4677;DHT22;2352;48.180;11.478;2023-03-01T08:13:35;4.50;88.30
4677;DHT22;2352;48.180;11.478;2023-03-01T08:16:38;4.60;87.80
4677;DHT22;2352;48.180;11.478;2023-03-01T08:19:42;4.30;87.20
4677;DHT22;2352;48.180;11.478;2023-03-01T08:22:46;4.40;87.90
4677;DHT22;2352;48.180;11.478;2023-03-01T08:25:49;4.50;88.00
4677;DHT22;2352;48.180;11.478;2023-03-01T08:28:52;4.60;87.20
4677;DHT22;2352;48.180;11.478;2023-03-01T08:31:55;4.60;87.60
4677;DHT22;2352;48.180;11.478;2023-03-01T08:34:58;4.60;87.20
4677;DHT22;2352;48.180;11.478;2023-03-01T08:38:03;4.60;86.70
4677;DHT22;2352;48.180;11.478;2023-03-01T08:41:06;4.60;86.80
4677;DHT22;2352;48.180;11.478;2023-03-01T08:44:09;4.60;87.00
4677;DHT22;2352;48.180;11.478;2023-03-01T08:47:12;4.70;87.10
4677;DHT22;2352;48.180;11.478;2023-03-01T08:50:16;4.80;86.50
4677;DHT22;2352;48.180;11.478;2023-03-01T08:53:20;4.80;86.80
4677;DHT22;2352;48.180;11.478;2023-03-01T08:56:23;4.80;86.60
4677;DHT22;2352;48.180;11.478;2023-03-01T08:59:26;4.90;86.60
4677;DHT22;2352;48.180;11.478;2023-03-01T09:02:31;4.90;86.70
4677;DHT22;2352;48.180;11.478;2023-03-01T09:05:34;4.90;86.10
4677;DHT22;2352;48.180;11.478;2023-03-01T09:08:41;5.00;86.50
4677;DHT22;2352;48.180;11.478;2023-03-01T09:11:45;5.00;86.90
4677;DHT22;2352;48.180;11.478;2023-03-01T09:14:48;5.00;86.30
4677;DHT22;2352;48.180;11.478;2023-03-01T09:17:51;4.90;85.80
4677;DHT22;2352;48.180;11.478;2023-03-01T09:21:00;5.00;86.30
4677;DHT22;2352;48.180;11.478;2023-03-01T09:24:05;5.10;87.80
4677;DHT22;2352;48.180;11.478;2023-03-01T09:27:09;5.20;86.20
4677;DHT22;2352;48.180;11.478;2023-03-01T09:30:13;5.10;86.00
4677;DHT22;2352;48.180;11.478;2023-03-01T09:33:16;5.10;86.70
4677;DHT22;2352;48.180;11.478;2023-03-01T09:36:22;5.10;85.70
4677;DHT22;2352;48.180;11.478;2023-03-01T09:39:26;5.20;86.50
4677;DHT22;2352;48.180;11.478;2023-03-01T09:42:31;5.20;86.30
4677;DHT22;2352;48.180;11.478;2023-03-01T09:45:39;5.20;86.40
4677;DHT22;2352;48.180;11.478;2023-03-01T09:48:48;5.30;86.50
4677;DHT22;2352;48.180;11.478;2023-03-01T09:52:02;5.30;86.10
4677;DHT22;2352;48.180;11.478;2023-03-01T09:55:11;5.40;86.30
4677;DHT22;2352;48.180;11.478;2023-03-01T09:58:29;5.40;86.00
4677;DHT22;2352;48.180;11.478;2023-03-01T10:01:35;5.50;86.50
4677;DHT22;2352;48.180;11.478;2023-03-01T10:04:45;5.50;86.70
4677;DHT22;2352;48.180;11.478;2023-03-01T10:07:55;5.20;87.10
4677;DHT22;2352;48.180;11.478;2023-03-01T10:11:03;5.30;87.80
4677;DHT22;2352;48.180;11.478;2023-03-01T10:14:27;5.40;87.30
4677;DHT22;2352;48.180;11.478;2023-03-01T10:17:35;5.50;87.20
4677;DHT22;2352;48.180;11.478;2023-03-01T10:20:45;5.70;87.10
4677;DHT22;2352;48.180;11.478;2023-03-01T10:23:50;5.80;86.70
4677;DHT22;2352;48.180;11.478;2023-03-01T10:26:57;5.90;86.70
4677;DHT22;2352;48.180;11.478;2023-03-01T10:30:07;6.10;85.90
4677;DHT22;2352;48.180;11.478;2023-03-01T10:33:17;6.20;86.10
4677;DHT22;2352;48.180;11.478;2023-03-01T10:36:20;6.40;84.50
4677;DHT22;2352;48.180;11.478;2023-03-01T10:39:25;6.60;84.00
4677;DHT22;2352;48.180;11.478;2023-03-01T10:42:31;6.70;83.90
4677;DHT22;2352;48.180;11.478;2023-03-01T10:45:36;6.90;83.70
4677;DHT22;2352;48.180;11.478;2023-03-01T10:48:39;7.10;82.50
4677;DHT22;2352;48.180;11.478;2023-03-01T10:51:44;7.20;82.00
4677;DHT22;2352;48.180;11.478;2023-03-01T10:54:53;7.40;81.40
4677;DHT22;2352;48.180;11.478;2023-03-01T10:58:17;7.50;80.70
4677;DHT22;2352;48.180;11.478;2023-03-01T11:01:31;7.70;80.80
4677;DHT22;2352;48.180;11.478;2023-03-01T11:04:36;7.90;80.90
4677;DHT22;2352;48.180;11.478;2023-03-01T11:07:47;8.10;80.10
4677;DHT22;2352;48.180;11.478;2023-03-01T11:10:50;8.30;79.00
4677;DHT22;2352;48.180;11.478;2023-03-01T11:14:00;8.40;77.40
4677;DHT22;2352;48.180;11.478;2023-03-01T11:17:15;8.50;77.50
4677;DHT22;2352;48.180;11.478;2023-03-01T11:20:25;8.80;76.30
4677;DHT22;2352;48.180;11.478;2023-03-01T11:23:30;9.00;78.10
4677;DHT22;2352;48.180;11.478;2023-03-01T11:26:37;9.30;76.00
4677;DHT22;2352;48.180;11.478;2023-03-01T11:29:44;9.40;75.10
4677;DHT22;2352;48.180;11.478;2023-03-01T11:32:56;9.60;74.40
4677;DHT22;2352;48.180;11.478;2023-03-01T11:36:04;9.80;73.50
4677;DHT22;2352;48.180;11.478;2023-03-01T11:39:18;10.00;75.40
4677;DHT22;2352;48.180;11.478;2023-03-01T11:42:31;10.20;73.10
4677;DHT22;2352;48.180;11.478;2023-03-01T11:45:47;10.30;71.20
4677;DHT22;2352;48.180;11.478;2023-03-01T11:49:04;10.40;71.50
4677;DHT22;2352;48.180;11.478;2023-03-01T11:52:14;10.50;71.00
4677;DHT22;2352;48.180;11.478;2023-03-01T11:55:43;10.60;68.90
4677;DHT22;2352;48.180;11.478;2023-03-01T11:59:25;10.50;69.90
4677;DHT22;2352;48.180;11.478;2023-03-01T12:03:02;10.50;70.60
4677;DHT22;2352;48.180;11.478;2023-03-01T12:06:31;10.50;71.30
4677;DHT22;2352;48.180;11.478;2023-03-01T12:09:49;10.80;71.50
4677;DHT22;2352;48.180;11.478;2023-03-01T12:13:09;10.70;71.40
4677;DHT22;2352;48.180;11.478;2023-03-01T12:16:33;11.10;70.00
4677;DHT22;2352;48.180;11.478;2023-03-01T12:19:56;11.30;69.90
4677;DHT22;2352;48.180;11.478;2023-03-01T12:23:16;11.50;68.50
4677;DHT22;2352;48.180;11.478;2023-03-01T12:26:29;11.80;67.70
4677;DHT22;2352;48.180;11.478;2023-03-01T12:29:36;12.00;67.90
4677;DHT22;2352;48.180;11.478;2023-03-01T12:32:49;12.30;66.20
4677;DHT22;2352;48.180;11.478;2023-03-01T12:36:25;12.20;65.10
4677;DHT22;2352;48.180;11.478;2023-03-01T12:39:43;12.40;66.30
4677;DHT22;2352;48.180;11.478;2023-03-01T12:42:55;12.70;64.70
4677;DHT22;2352;48.180;11.478;2023-03-01T12:46:19;12.80;62.80
4677;DHT22;2352;48.180;11.478;2023-03-01T12:49:28;12.90;64.00
4677;DHT22;2352;48.180;11.478;2023-03-01T12:52:38;13.10;64.00
4677;DHT22;2352;48.180;11.478;2023-03-01T12:55:43;13.30;62.90
4677;DHT22;2352;48.180;11.478;2023-03-01T12:58:55;13.50;61.30
4677;DHT22;2352;48.180;11.478;2023-03-01T13:02:04;13.60;61.50
4677;DHT22;2352;48.180;11.478;2023-03-01T13:05:23;13.70;61.20
4677;DHT22;2352;48.180;11.478;2023-03-01T13:08:33;13.80;60.30
4677;DHT22;2352;48.180;11.478;2023-03-01T13:11:42;13.80;59.20
4677;DHT22;2352;48.180;11.478;2023-03-01T13:14:46;13.90;60.50
4677;DHT22;2352;48.180;11.478;2023-03-01T13:17:49;13.90;59.20
4677;DHT22;2352;48.180;11.478;2023-03-01T13:20:55;13.90;57.90
4677;DHT22;2352;48.180;11.478;2023-03-01T13:24:00;13.80;60.40
4677;DHT22;2352;48.180;11.478;2023-03-01T13:27:18;13.90;59.60
4677;DHT22;2352;48.180;11.478;2023-03-01T13:30:41;14.10;59.40
4677;DHT22;2352;48.180;11.478;2023-03-01T13:33:45;14.30;60.30
4677;DHT22;2352;48.180;11.478;2023-03-01T13:36:49;14.30;58.00
4677;DHT22;2352;48.180;11.478;2023-03-01T13:39:53;14.00;58.20
4677;DHT22;2352;48.180;11.478;2023-03-01T13:42:56;14.20;58.50
4677;DHT22;2352;48.180;11.478;2023-03-01T13:46:14;14.30;59.60
4677;DHT22;2352;48.180;11.478;2023-03-01T13:49:21;14.20;57.80
4677;DHT22;2352;48.180;11.478;2023-03-01T13:52:36;14.10;58.60
4677;DHT22;2352;48.180;11.478;2023-03-01T13:55:44;14.00;57.70
4677;DHT22;2352;48.180;11.478;2023-03-01T13:58:50;14.00;59.30
4677;DHT22;2352;48.180;11.478;2023-03-01T14:01:56;14.30;59.20
4677;DHT22;2352;48.180;11.478;2023-03-01T14:05:00;14.50;59.20
4677;DHT22;2352;48.180;11.478;2023-03-01T14:08:03;14.40;58.10
4677;DHT22;2352;48.180;11.478;2023-03-01T14:11:37;14.50;58.30
4677;DHT22;2352;48.180;11.478;2023-03-01T14:14:48;14.60;58.90
4677;DHT22;2352;48.180;11.478;2023-03-01T14:17:59;14.80;58.00
4677;DHT22;2352;48.180;11.478;2023-03-01T14:21:07;14.90;56.40
4677;DHT22;2352;48.180;11.478;2023-03-01T14:24:18;14.90;56.80
4677;DHT22;2352;48.180;11.478;2023-03-01T14:27:26;14.90;56.70
4677;DHT22;2352;48.180;11.478;2023-03-01T14:30:36;14.90;57.30
4677;DHT22;2352;48.180;11.478;2023-03-01T14:33:40;14.90;57.10
4677;DHT22;2352;48.180;11.478;2023-03-01T14:36:43;14.90;57.10
4677;DHT22;2352;48.180;11.478;2023-03-01T14:39:46;14.80;56.70
4677;DHT22;2352;48.180;11.478;2023-03-01T14:42:51;14.70;57.30
4677;DHT22;2352;48.180;11.478;2023-03-01T14:45:56;14.80;57.80
4677;DHT22;2352;48.180;11.478;2023-03-01T14:49:02;14.90;57.20
4677;DHT22;2352;48.180;11.478;2023-03-01T14:52:07;14.90;57.70
4677;DHT22;2352;48.180;11.478;2023-03-01T14:55:22;15.00;55.80
4677;DHT22;2352;48.180;11.478;2023-03-01T14:58:32;14.90;56.50
4677;DHT22;2352;48.180;11.478;2023-03-01T15:01:35;14.60;57.00
4677;DHT22;2352;48.180;11.478;2023-03-01T15:04:39;14.60;58.10
4677;DHT22;2352;48.180;11.478;2023-03-01T15:07:43;14.70;58.30
4677;DHT22;2352;48.180;11.478;2023-03-01T15:10:59;14.40;57.60
4677;DHT22;2352;48.180;11.478;2023-03-01T15:14:40;14.40;58.20
4677;DHT22;2352;48.180;11.478;2023-03-01T15:17:54;14.60;58.60
4677;DHT22;2352;48.180;11.478;2023-03-01T15:21:06;14.80;58.10
4677;DHT22;2352;48.180;11.478;2023-03-01T15:24:17;14.80;57.50
4677;DHT22;2352;48.180;11.478;2023-03-01T15:27:25;14.70;58.10
4677;DHT22;2352;48.180;11.478;2023-03-01T15:30:32;14.80;58.10
4677;DHT22;2352;48.180;11.478;2023-03-01T15:33:38;14.90;58.00
4677;DHT22;2352;48.180;11.478;2023-03-01T15:36:48;14.90;58.10
4677;DHT22;2352;48.180;11.478;2023-03-01T15:39:54;14.90;57.90
4677;DHT22;2352;48.180;11.478;2023-03-01T15:42:57;14.80;57.70
4677;DHT22;2352;48.180;11.478;2023-03-01T15:46:01;14.80;58.10
4677;DHT22;2352;48.180;11.478;2023-03-01T15:49:06;14.70;57.50
4677;DHT22;2352;48.180;11.478;2023-03-01T15:52:24;14.60;58.20
4677;DHT22;2352;48.180;11.478;2023-03-01T15:55:32;14.50;57.90
4677;DHT22;2352;48.180;11.478;2023-03-01T15:58:35;14.40;58.80
4677;DHT22;2352;48.180;11.478;2023-03-01T16:01:39;14.30;59.10
4677;DHT22;2352;48.180;11.478;2023-03-01T16:04:42;14.20;59.10
4677;DHT22;2352;48.180;11.478;2023-03-01T16:07:45;14.00;59.30
4677;DHT22;2352;48.180;11.478;2023-03-01T16:10:49;13.80;60.30
4677;DHT22;2352;48.180;11.478;2023-03-01T16:13:53;13.80;60.00
4677;DHT22;2352;48.180;11.478;2023-03-01T16:16:57;13.60;60.70
4677;DHT22;2352;48.180;11.478;2023-03-01T16:20:00;13.40;61.80
4677;DHT22;2352;48.180;11.478;2023-03-01T16:23:05;13.20;62.30
4677;DHT22;2352;48.180;11.478;2023-03-01T16:26:09;13.20;62.00
4677;DHT22;2352;48.180;11.478;2023-03-01T16:29:12;13.00;62.30
4677;DHT22;2352;48.180;11.478;2023-03-01T16:32:17;12.90;63.10
4677;DHT22;2352;48.180;11.478;2023-03-01T16:35:21;12.80;63.40
4677;DHT22;2352;48.180;11.478;2023-03-01T16:38:24;12.60;64.20
4677;DHT22;2352;48.180;11.478;2023-03-01T16:41:28;12.50;64.60
4677;DHT22;2352;48.180;11.478;2023-03-01T16:44:31;12.40;65.00
4677;DHT22;2352;48.180;11.478;2023-03-01T16:47:35;12.30;65.10
4677;DHT22;2352;48.180;11.478;2023-03-01T16:50:39;12.20;65.80
4677;DHT22;2352;48.180;11.478;2023-03-01T16:53:42;12.10;66.00
4677;DHT22;2352;48.180;11.478;2023-03-01T16:56:47;12.00;66.40
4677;DHT22;2352;48.180;11.478;2023-03-01T16:59:51;11.90;66.60
4677;DHT22;2352;48.180;11.478;2023-03-01T17:02:56;11.80;66.90
4677;DHT22;2352;48.180;11.478;2023-03-01T17:06:02;11.70;67.10
4677;DHT22;2352;48.180;11.478;2023-03-01T17:09:05;11.70;67.50
4677;DHT22;2352;48.180;11.478;2023-03-01T17:12:08;11.50;68.10
4677;DHT22;2352;48.180;11.478;2023-03-01T17:15:14;11.50;68.30
4677;DHT22;2352;48.180;11.478;2023-03-01T17:18:18;11.40;68.50
4677;DHT22;2352;48.180;11.478;2023-03-01T17:21:21;11.30;68.90
4677;DHT22;2352;48.180;11.478;2023-03-01T17:24:24;11.20;69.20
4677;DHT22;2352;48.180;11.478;2023-03-01T17:27:27;11.10;69.50
4677;DHT22;2352;48.180;11.478;2023-03-01T17:30:30;11.00;69.90
4677;DHT22;2352;48.180;11.478;2023-03-01T17:33:34;10.90;70.30
4677;DHT22;2352;48.180;11.478;2023-03-01T17:36:37;10.80;70.40
4677;DHT22;2352;48.180;11.478;2023-03-01T17:39:44;10.70;70.60
4677;DHT22;2352;48.180;11.478;2023-03-01T17:42:47;10.60;71.30
4677;DHT22;2352;48.180;11.478;2023-03-01T17:45:50;10.50;71.60
4677;DHT22;2352;48.180;11.478;2023-03-01T17:48:54;10.40;71.90
4677;DHT22;2352;48.180;11.478;2023-03-01T17:51:58;10.30;72.20
4677;DHT22;2352;48.180;11.478;2023-03-01T17:55:01;10.20;72.60
4677;DHT22;2352;48.180;11.478;2023-03-01T17:58:04;10.20;73.30
4677;DHT22;2352;48.180;11.478;2023-03-01T18:01:12;10.10;74.10
4677;DHT22;2352;48.180;11.478;2023-03-01T18:04:17;10.00;75.40
4677;DHT22;2352;48.180;11.478;2023-03-01T18:07:21;10.00;75.60
4677;DHT22;2352;48.180;11.478;2023-03-01T18:10:24;9.90;75.70
4677;DHT22;2352;48.180;11.478;2023-03-01T18:13:27;9.90;76.50
4677;DHT22;2352;48.180;11.478;2023-03-01T18:16:30;9.80;76.50
4677;DHT22;2352;48.180;11.478;2023-03-01T18:19:36;9.80;76.40
4677;DHT22;2352;48.180;11.478;2023-03-01T18:22:41;9.70;76.50
4677;DHT22;2352;48.180;11.478;2023-03-01T18:25:44;9.80;76.30
4677;DHT22;2352;48.180;11.478;2023-03-01T18:28:48;9.80;75.90
4677;DHT22;2352;48.180;11.478;2023-03-01T18:31:51;9.80;75.50
4677;DHT22;2352;48.180;11.478;2023-03-01T18:34:55;9.80;75.40
4677;DHT22;2352;48.180;11.478;2023-03-01T18:37:58;9.70;75.30
4677;DHT22;2352;48.180;11.478;2023-03-01T18:41:01;9.60;75.70
4677;DHT22;2352;48.180;11.478;2023-03-01T18:44:04;9.60;75.90
4677;DHT22;2352;48.180;11.478;2023-03-01T18:47:08;9.50;75.80
4677;DHT22;2352;48.180;11.478;2023-03-01T18:50:13;9.50;75.60
4677;DHT22;2352;48.180;11.478;2023-03-01T18:53:15;9.40;75.70
4677;DHT22;2352;48.180;11.478;2023-03-01T18:56:18;9.30;76.00
4677;DHT22;2352;48.180;11.478;2023-03-01T18:59:21;9.20;76.30
4677;DHT22;2352;48.180;11.478;2023-03-01T19:02:24;9.10;76.80
4677;DHT22;2352;48.180;11.478;2023-03-01T19:05:29;9.00;77.20
4677;DHT22;2352;48.180;11.478;2023-03-01T19:08:32;9.00;77.00
4677;DHT22;2352;48.180;11.478;2023-03-01T19:11:35;9.00;77.00
4677;DHT22;2352;48.180;11.478;2023-03-01T19:14:38;9.00;77.00
4677;DHT22;2352;48.180;11.478;2023-03-01T19:17:41;8.90;77.20
4677;DHT22;2352;48.180;11.478;2023-03-01T19:20:46;8.80;77.30
4677;DHT22;2352;48.180;11.478;2023-03-01T19:23:51;8.80;77.20
4677;DHT22;2352;48.180;11.478;2023-03-01T19:26:54;8.90;77.20
4677;DHT22;2352;48.180;11.478;2023-03-01T19:29:58;8.80;77.40
4677;DHT22;2352;48.180;11.478;2023-03-01T19:33:00;8.80;77.80
4677;DHT22;2352;48.180;11.478;2023-03-01T19:36:06;8.70;77.80
4677;DHT22;2352;48.180;11.478;2023-03-01T19:39:11;8.70;78.30
4677;DHT22;2352;48.180;11.478;2023-03-01T19:42:14;8.70;78.70
4677;DHT22;2352;48.180;11.478;2023-03-01T19:45:17;8.60;78.70
4677;DHT22;2352;48.180;11.478;2023-03-01T19:48:32;8.60;78.60
4677;DHT22;2352;48.180;11.478;2023-03-01T19:51:36;8.60;79.00
4677;DHT22;2352;48.180;11.478;2023-03-01T19:54:40;8.50;79.00
4677;DHT22;2352;48.180;11.478;2023-03-01T19:57:43;8.50;79.60
4677;DHT22;2352;48.180;11.478;2023-03-01T20:00:46;8.50;79.80
4677;DHT22;2352;48.180;11.478;2023-03-01T20:03:49;8.50;79.30
4677;DHT22;2352;48.180;11.478;2023-03-01T20:06:53;8.50;79.50
4677;DHT22;2352;48.180;11.478;2023-03-01T20:09:56;8.50;80.00